Time;durP1;ratioP1;P1;durP2;ratioP2;P2;SDS_P1;SDS_P2;PMS_P1;PMS_P2;Temp;Humidity;BMP_temperature;BMP_pressure;BME280_temperature;BME280_humidity;BME280_pressure;Samples;Min_cycle;Max_cycle;Signal;HPM_P1;HPM_P2
2022/09/30 00:00:16;;;;;;;;;;;;;;;14.65;76.54;100448.66;1677864;85;25688;-59
2022/09/30 00:02:44;;;;;;;;;;;;;;;14.65;76.35;100452.23;1675955;84;26025;-61
2022/09/30 00:05:11;;;;;;;;;;;;;;;14.63;76.37;100454.25;1675643;85;25732;-60
2022/09/30 00:07:37;;;;;;;;;;;;;;;14.63;76.27;100465.57;1676885;84;25769;-60
2022/09/30 00:10:06;;;;;;;;;;;;;;;14.61;76.40;100466.28;1679530;84;26205;-60
2022/09/30 00:12:33;;;;;;;;;;;;;;;14.58;76.54;100468.79;1680245;85;25704;-60
2022/09/30 00:15:00;;;;;;;;;;;;;;;14.59;76.86;100472.36;1679645;85;28347;-60
2022/09/30 00:17:27;;;;;;;;;;;;;;;14.57;76.72;100468.45;1678196;85;25744;-60
2022/09/30 00:19:54;;;;;;;;;;;;;;;14.51;76.55;100468.64;1676775;85;25850;-60
2022/09/30 00:22:20;;;;;;;;;;;;;;;14.49;76.94;100469.31;1675573;85;26141;-61
2022/09/30 00:24:47;;;;;;;;;;;;;;;14.46;76.96;100476.41;1675598;85;26092;-61
2022/09/30 00:27:17;;;;;;;;;;;;;;;14.44;76.95;100475.73;1675469;84;27528;-60
2022/09/30 00:29:43;;;;;;;;;;;;;;;14.45;76.88;100471.17;1684027;84;25707;-61
2022/09/30 00:32:09;;;;;;;;;;;;;;;14.43;76.70;100474.06;1720028;81;25784;-61
2022/09/30 00:34:37;;;;;;;;;;;;;;;14.42;76.87;100480.48;1717582;82;26254;-60
2022/09/30 00:37:03;;;;;;;;;;;;;;;14.38;76.99;100485.88;1731913;83;25728;-62
2022/09/30 00:39:30;;;;;;;;;;;;;;;14.33;77.10;100478.27;1750802;81;27897;-61
2022/09/30 00:41:59;;;;;;;;;;;;;;;14.30;76.91;100473.18;1719759;82;25725;-60
2022/09/30 00:44:52;;;;;;;;;;;;;;;14.32;77.93;100476.57;1741412;82;25791;-61
2022/09/30 00:47:40;;;;;;;;;;;;;;;14.29;79.14;100478.77;1739971;82;26095;-60
2022/09/30 00:50:37;;;;;;;;;;;;;;;14.25;78.86;100483.16;1731612;82;25780;-61
2022/09/30 00:53:18;;;;;;;;;;;;;;;14.25;78.89;100480.97;1713350;83;28032;-60
2022/09/30 00:56:09;;;;;;;;;;;;;;;14.28;78.87;100488.76;1713249;83;25768;-61
2022/09/30 00:58:45;;;;;;;;;;;;;;;14.28;78.76;100493.31;1713312;83;25763;-61
2022/09/30 01:01:13;;;;;;;;;;;;;;;14.24;78.14;100496.37;1725194;82;26060;-61
2022/09/30 01:03:49;;;;;;;;;;;;;;;14.21;78.06;100495.34;1741267;82;25692;-61
2022/09/30 01:06:17;;;;;;;;;;;;;;;14.22;78.79;100490.76;1741830;82;27454;-60
2022/09/30 01:08:45;;;;;;;;;;;;;;;14.23;78.40;100492.45;1741249;82;25802;-60
2022/09/30 01:11:11;;;;;;;;;;;;;;;14.19;78.12;100498.71;1737447;82;26057;-60
2022/09/30 01:13:38;;;;;;;;;;;;;;;14.18;78.11;100488.90;1732018;82;26894;-61
2022/09/30 01:16:28;;;;;;;;;;;;;;;14.17;78.04;100489.91;1731538;82;25786;-61
2022/09/30 01:19:22;;;;;;;;;;;;;;;14.17;77.95;100494.48;1730305;82;27419;-61
2022/09/30 01:22:04;;;;;;;;;;;;;;;14.08;77.56;100493.61;1730726;81;25844;-61
2022/09/30 01:24:49;;;;;;;;;;;;;;;14.06;77.78;100503.77;1732115;82;25720;-61
2022/09/30 01:27:22;;;;;;;;;;;;;;;14.04;77.90;100503.08;1731809;82;25783;-60
2022/09/30 01:29:59;;;;;;;;;;;;;;;14.02;77.87;100496.50;1733771;81;25736;-60
2022/09/30 01:32:38;;;;;;;;;;;;;;;14.01;77.78;100498.00;1701943;83;27648;-61
2022/09/30 01:35:14;;;;;;;;;;;;;;;14.01;77.92;100506.11;1701547;83;25817;-60
2022/09/30 01:38:01;;;;;;;;;;;;;;;13.98;77.44;100510.52;1696021;84;25452;-61
2022/09/30 01:40:34;;;;;;;;;;;;;;;13.92;77.43;100512.85;1700233;84;26523;-61
2022/09/30 01:43:13;;;;;;;;;;;;;;;13.83;78.29;100514.36;1696777;82;25745;-61
2022/09/30 01:45:43;;;;;;;;;;;;;;;13.77;77.80;100525.31;1695947;83;27538;-61
2022/09/30 01:48:17;;;;;;;;;;;;;;;13.77;77.86;100531.55;1696079;84;25663;-61
2022/09/30 01:51:06;;;;;;;;;;;;;;;13.72;78.06;100531.70;1697484;84;25497;-61
2022/09/30 01:53:48;;;;;;;;;;;;;;;13.69;77.78;100524.77;1696156;84;26845;-61
2022/09/30 01:56:30;;;;;;;;;;;;;;;13.67;78.04;100530.83;1696210;84;25863;-60
2022/09/30 01:59:09;;;;;;;;;;;;;;;13.69;78.45;100530.17;1648729;85;27710;-60
2022/09/30 02:01:39;;;;;;;;;;;;;;;13.72;78.18;100537.10;1695838;84;25731;-61
2022/09/30 02:04:12;;;;;;;;;;;;;;;13.69;78.17;100527.98;1697288;82;25748;-61
2022/09/30 02:06:42;;;;;;;;;;;;;;;13.69;78.31;100537.45;1695969;84;26105;-60
2022/09/30 02:09:11;;;;;;;;;;;;;;;13.72;78.41;100541.16;1696593;83;25737;-61
2022/09/30 02:11:38;;;;;;;;;;;;;;;13.72;78.29;100541.16;1696069;83;27646;-60
2022/09/30 02:14:11;;;;;;;;;;;;;;;13.71;78.30;100541.67;1696530;83;25889;-60
2022/09/30 02:16:42;;;;;;;;;;;;;;;13.72;78.19;100548.78;1696845;83;25761;-60
2022/09/30 02:19:12;;;;;;;;;;;;;;;13.70;78.26;100548.61;1696010;84;26919;-61
2022/09/30 02:21:41;;;;;;;;;;;;;;;13.68;78.30;100554.67;1696803;82;25504;-61
2022/09/30 02:24:09;;;;;;;;;;;;;;;13.68;78.25;100551.45;1696228;84;27442;-61
2022/09/30 02:26:38;;;;;;;;;;;;;;;13.67;78.04;100551.63;1696141;83;25765;-61
2022/09/30 02:29:17;;;;;;;;;;;;;;;13.64;78.41;100555.50;1696194;83;25738;-63
2022/09/30 02:31:46;;;;;;;;;;;;;;;13.58;79.40;100562.91;1681887;84;26074;-61
2022/09/30 02:34:28;;;;;;;;;;;;;;;13.52;78.81;100558.13;1724095;82;25717;-61
2022/09/30 02:37:04;;;;;;;;;;;;;;;13.46;78.77;100551.03;1731300;82;27600;-61
2022/09/30 02:39:43;;;;;;;;;;;;;;;13.44;78.75;100558.44;1739697;82;26054;-61
2022/09/30 02:42:14;;;;;;;;;;;;;;;13.43;78.79;100562.66;1742116;82;25719;-60
2022/09/30 02:44:40;;;;;;;;;;;;;;;13.42;78.93;100557.74;1735659;81;27094;-60
2022/09/30 02:47:20;;;;;;;;;;;;;;;13.43;79.00;100563.49;1736133;82;26016;-60
2022/09/30 02:49:53;;;;;;;;;;;;;;;13.44;79.00;100567.89;1735171;82;27622;-61
2022/09/30 02:52:29;;;;;;;;;;;;;;;13.47;79.00;100569.42;1726593;83;25957;-62
2022/09/30 02:55:09;;;;;;;;;;;;;;;13.46;79.07;100576.70;1717220;83;25700;-60
2022/09/30 02:57:54;;;;;;;;;;;;;;;13.43;79.13;100582.41;1694238;83;26228;-60
2022/09/30 03:00:20;;;;;;;;;;;;;;;13.44;79.47;100587.33;1727244;82;25681;-59
2022/09/30 03:02:47;;;;;;;;;;;;;;;13.45;79.57;100585.80;1727185;82;27395;-60
2022/09/30 03:05:16;;;;;;;;;;;;;;;13.49;79.39;100584.14;1727208;82;25740;-60
2022/09/30 03:07:42;;;;;;;;;;;;;;;13.49;79.18;100580.09;1727913;82;25782;-59
2022/09/30 03:10:14;;;;;;;;;;;;;;;13.48;79.01;100575.69;1733153;82;26116;-60
2022/09/30 03:12:44;;;;;;;;;;;;;;;13.47;78.82;100576.18;1726818;82;25446;-62
2022/09/30 03:15:26;;;;;;;;;;;;;;;13.44;78.66;100588.67;1725479;82;27673;-61
2022/09/30 03:18:02;;;;;;;;;;;;;;;13.43;78.73;100592.38;1727843;82;25958;-60
2022/09/30 03:20:49;;;;;;;;;;;;;;;13.41;78.50;100591.17;1732016;82;25736;-60
2022/09/30 03:23:24;;;;;;;;;;;;;;;13.39;78.57;100591.86;1677496;82;26112;-62
2022/09/30 03:25:58;;;;;;;;;;;;;;;13.36;78.59;100586.73;1731315;82;25684;-61
2022/09/30 03:28:31;;;;;;;;;;;;;;;13.30;78.34;100583.33;1732033;81;27567;-62
2022/09/30 03:31:17;;;;;;;;;;;;;;;13.24;78.53;100584.80;1739466;82;26191;-60
2022/09/30 03:33:53;;;;;;;;;;;;;;;13.21;78.61;100587.80;1737893;82;25806;-61
2022/09/30 03:36:32;;;;;;;;;;;;;;;13.19;78.36;100593.03;1730597;82;26096;-61
2022/09/30 03:39:09;;;;;;;;;;;;;;;13.13;78.23;100597.20;1720370;82;25494;-61
2022/09/30 03:41:41;;;;;;;;;;;;;;;13.11;78.50;100590.62;1745941;81;28336;-61
2022/09/30 03:44:11;;;;;;;;;;;;;;;13.10;78.67;100588.92;1746163;80;25966;-60
2022/09/30 03:46:41;;;;;;;;;;;;;;;13.10;78.72;100598.86;1731342;82;26318;-61
2022/09/30 03:49:12;;;;;;;;;;;;;;;13.11;78.99;100604.61;1723818;82;26093;-61
2022/09/30 03:51:40;;;;;;;;;;;;;;;13.13;78.75;100608.84;1726598;83;25932;-61
2022/09/30 03:54:09;;;;;;;;;;;;;;;13.09;78.54;100607.47;1727322;82;28173;-60
2022/09/30 03:56:40;;;;;;;;;;;;;;;13.08;78.66;100605.77;1729596;82;26535;-61
2022/09/30 03:59:05;;;;;;;;;;;;;;;13.06;78.70;100599.67;1735030;81;25487;-60
2022/09/30 04:01:32;;;;;;;;;;;;;;;13.06;78.81;100596.97;1735364;82;26184;-60
2022/09/30 04:03:58;;;;;;;;;;;;;;;13.08;78.95;100608.99;1731781;82;25696;-60
2022/09/30 04:06:24;;;;;;;;;;;;;;;13.08;78.96;100616.58;1731738;82;27474;-61
2022/09/30 04:08:52;;;;;;;;;;;;;;;13.07;79.01;100617.58;1730227;82;25794;-61
2022/09/30 04:11:19;;;;;;;;;;;;;;;13.09;79.34;100621.46;1737904;82;25744;-61
2022/09/30 04:13:46;;;;;;;;;;;;;;;13.04;79.11;100621.09;1731749;82;26103;-60
2022/09/30 04:16:12;;;;;;;;;;;;;;;12.97;78.90;100627.13;1732065;82;25879;-61
2022/09/30 04:18:39;;;;;;;;;;;;;;;12.95;78.97;100637.23;1732891;82;27551;-59
2022/09/30 04:21:08;;;;;;;;;;;;;;;12.96;78.98;100640.77;1738251;82;25791;-60
2022/09/30 04:23:36;;;;;;;;;;;;;;;12.97;78.98;100642.47;1737539;82;25761;-60
2022/09/30 04:26:04;;;;;;;;;;;;;;;12.98;79.16;100645.52;1735851;81;26151;-60
2022/09/30 04:28:31;;;;;;;;;;;;;;;13.00;79.30;100645.70;1735728;82;25732;-60
2022/09/30 04:31:00;;;;;;;;;;;;;;;13.02;79.06;100648.27;1737563;82;28186;-62
2022/09/30 04:33:27;;;;;;;;;;;;;;;13.05;79.23;100641.19;1721709;81;25894;-60
2022/09/30 04:35:58;;;;;;;;;;;;;;;13.08;79.41;100642.75;1682457;83;25728;-60
2022/09/30 04:38:26;;;;;;;;;;;;;;;13.12;79.58;100649.03;1680388;84;26203;-61
2022/09/30 04:40:56;;;;;;;;;;;;;;;13.17;79.33;100647.70;1679676;84;25738;-60
2022/09/30 04:43:23;;;;;;;;;;;;;;;13.20;79.09;100656.85;1679798;85;27591;-61
2022/09/30 04:45:51;;;;;;;;;;;;;;;13.23;79.08;100665.97;1679910;84;25737;-61
2022/09/30 04:48:18;;;;;;;;;;;;;;;13.23;78.98;100660.57;1679703;84;25642;-61
2022/09/30 04:50:45;;;;;;;;;;;;;;;13.22;78.74;100669.70;1680176;84;26105;-60
2022/09/30 04:53:13;;;;;;;;;;;;;;;13.22;78.76;100675.11;1682508;82;25765;-60
2022/09/30 04:55:41;;;;;;;;;;;;;;;13.25;78.96;100678.83;1681660;83;27645;-59
2022/09/30 04:58:08;;;;;;;;;;;;;;;13.29;79.19;100682.93;1680826;82;25816;-60
2022/09/30 05:00:35;;;;;;;;;;;;;;;13.38;79.34;100695.98;1704723;84;25623;-60
2022/09/30 05:03:02;;;;;;;;;;;;;;;13.43;79.30;100699.95;1706663;81;26105;-60
2022/09/30 05:05:29;;;;;;;;;;;;;;;13.49;79.32;100705.75;1705996;82;26195;-60
2022/09/30 05:08:02;;;;;;;;;;;;;;;13.58;79.54;100699.41;1694592;84;28463;-60
2022/09/30 05:10:29;;;;;;;;;;;;;;;13.66;79.50;100699.95;1679700;84;25707;-60
2022/09/30 05:12:57;;;;;;;;;;;;;;;13.75;79.63;100713.38;1677956;84;25798;-60
2022/09/30 05:15:24;;;;;;;;;;;;;;;13.82;79.50;100710.86;1675531;85;26148;-61
2022/09/30 05:17:51;;;;;;;;;;;;;;;13.87;79.32;100695.52;1675645;85;25932;-61
2022/09/30 05:20:19;;;;;;;;;;;;;;;13.98;79.11;100694.42;1675763;84;28573;-60
2022/09/30 05:22:47;;;;;;;;;;;;;;;14.04;79.04;100690.55;1675442;84;25466;-60
2022/09/30 05:25:13;;;;;;;;;;;;;;;14.15;79.34;100692.14;1679639;85;25642;-60
2022/09/30 05:27:40;;;;;;;;;;;;;;;14.24;79.41;100692.52;1680405;84;26119;-60
2022/09/30 05:30:08;;;;;;;;;;;;;;;14.34;79.47;100694.25;1691767;83;26227;-61
2022/09/30 05:32:35;;;;;;;;;;;;;;;14.46;79.38;100701.56;1707464;84;28384;-61
2022/09/30 05:35:02;;;;;;;;;;;;;;;14.57;79.41;100712.08;1732824;82;25724;-60
2022/09/30 05:37:28;;;;;;;;;;;;;;;14.66;79.45;100715.19;1736617;82;25810;-62
2022/09/30 05:39:55;;;;;;;;;;;;;;;14.76;79.42;100728.59;1725780;82;27017;-60
2022/09/30 05:42:22;;;;;;;;;;;;;;;14.84;79.34;100726.41;1730113;82;25809;-61
2022/09/30 05:44:49;;;;;;;;;;;;;;;14.94;79.38;100731.17;1730548;82;27485;-61
2022/09/30 05:47:16;;;;;;;;;;;;;;;15.05;79.42;100726.45;1742775;82;25941;-61
2022/09/30 05:49:44;;;;;;;;;;;;;;;15.15;79.27;100729.86;1742814;82;25746;-60
2022/09/30 05:52:13;;;;;;;;;;;;;;;15.25;79.35;100736.47;1742983;82;26510;-60
2022/09/30 05:54:39;;;;;;;;;;;;;;;15.31;79.28;100732.58;1742678;80;25726;-62
2022/09/30 05:57:07;;;;;;;;;;;;;;;15.41;79.11;100743.77;1744480;81;27420;-61
2022/09/30 05:59:34;;;;;;;;;;;;;;;15.51;79.03;100754.47;1737952;81;25755;-60
2022/09/30 06:02:00;;;;;;;;;;;;;;;15.61;78.93;100759.19;1730185;82;25707;-60
2022/09/30 06:04:26;;;;;;;;;;;;;;;15.68;78.83;100755.30;1729603;81;26012;-61
2022/09/30 06:06:53;;;;;;;;;;;;;;;15.74;78.47;100751.40;1733967;82;25752;-60
2022/09/30 06:09:20;;;;;;;;;;;;;;;15.78;78.15;100745.95;1728041;81;27485;-61
2022/09/30 06:11:46;;;;;;;;;;;;;;;15.83;78.23;100749.51;1729372;82;27333;-61
2022/09/30 06:14:13;;;;;;;;;;;;;;;15.87;78.04;100756.85;1726440;82;25736;-60
2022/09/30 06:16:40;;;;;;;;;;;;;;;15.90;78.08;100758.71;1730180;81;26088;-60
2022/09/30 06:19:06;;;;;;;;;;;;;;;15.92;77.96;100755.30;1724123;82;25748;-61
2022/09/30 06:21:33;;;;;;;;;;;;;;;15.94;77.96;100751.91;1735360;82;27490;-61
2022/09/30 06:24:00;;;;;;;;;;;;;;;15.94;78.01;100755.97;1734073;82;25748;-61
2022/09/30 06:26:26;;;;;;;;;;;;;;;15.93;77.91;100763.77;1735485;82;26076;-61
2022/09/30 06:28:53;;;;;;;;;;;;;;;15.90;78.00;100760.06;1726108;82;26113;-60
2022/09/30 06:31:20;;;;;;;;;;;;;;;15.91;78.18;100764.45;1744263;81;25689;-60
2022/09/30 06:33:46;;;;;;;;;;;;;;;15.96;78.44;100762.58;1725092;82;28270;-59
2022/09/30 06:36:14;;;;;;;;;;;;;;;16.02;78.46;100762.40;1685571;83;25782;-62
2022/09/30 06:38:41;;;;;;;;;;;;;;;16.05;78.36;100764.25;1686179;83;25867;-61
2022/09/30 06:41:09;;;;;;;;;;;;;;;16.10;78.37;100755.59;1683516;84;25710;-61
2022/09/30 06:43:36;;;;;;;;;;;;;;;16.15;78.39;100763.22;1683637;83;25818;-61
2022/09/30 06:46:02;;;;;;;;;;;;;;;16.17;77.92;100764.77;1687002;83;27528;-60
2022/09/30 06:48:30;;;;;;;;;;;;;;;16.18;78.20;100773.22;1681336;84;25774;-61
2022/09/30 06:50:57;;;;;;;;;;;;;;;16.23;78.29;100788.48;1697537;83;25798;-61
2022/09/30 06:53:24;;;;;;;;;;;;;;;16.26;78.33;100794.94;1686113;83;26046;-61
2022/09/30 06:55:55;;;;;;;;;;;;;;;16.31;78.34;100803.92;1682343;84;26148;-61
2022/09/30 06:58:23;;;;;;;;;;;;;;;16.38;78.58;100804.05;1684338;84;27584;-60
2022/09/30 07:01:06;;;;;;;;;;;;;;;16.43;78.56;100797.61;1688031;82;25947;-60
2022/09/30 07:03:34;;;;;;;;;;;;;;;16.49;78.61;100800.14;1682705;83;25877;-60
2022/09/30 07:06:02;;;;;;;;;;;;;;;16.54;78.49;100801.28;1687999;82;26736;-60
2022/09/30 07:08:30;;;;;;;;;;;;;;;16.57;78.42;100796.87;1683227;83;25984;-60
2022/09/30 07:11:07;;;;;;;;;;;;;;;16.63;78.61;100792.61;1682767;84;28508;-60
2022/09/30 07:13:32;;;;;;;;;;;;;;;16.69;78.35;100790.54;1681035;85;25842;-59
2022/09/30 07:15:58;;;;;;;;;;;;;;;16.72;78.83;100794.27;1683421;84;25812;-61
2022/09/30 07:18:27;;;;;;;;;;;;;;;16.76;79.04;100796.65;1682925;84;26104;-60
2022/09/30 07:20:54;;;;;;;;;;;;;;;16.78;78.60;100794.58;1680906;84;26394;-59
2022/09/30 07:23:22;;;;;;;;;;;;;;;16.84;78.40;100791.17;1688964;82;28404;-58
2022/09/30 07:25:55;;;;;;;;;;;;;;;16.92;78.40;100791.62;1685548;82;25782;-60
2022/09/30 07:28:26;;;;;;;;;;;;;;;17.00;78.45;100786.17;1684980;83;25964;-61
2022/09/30 07:30:54;;;;;;;;;;;;;;;17.08;78.19;100790.73;1674999;83;26827;-61
2022/09/30 07:33:22;;;;;;;;;;;;;;;17.19;78.12;100789.80;1678652;85;25761;-61
2022/09/30 07:35:51;;;;;;;;;;;;;;;17.29;77.92;100789.59;1702532;82;27462;-60
2022/09/30 07:38:20;;;;;;;;;;;;;;;17.45;78.13;100794.05;1694377;83;25733;-60
2022/09/30 07:40:59;;;;;;;;;;;;;;;17.60;76.93;100796.83;1693274;83;25848;-60
2022/09/30 07:43:33;;;;;;;;;;;;;;;17.73;76.39;100800.83;1692703;83;26158;-61
2022/09/30 07:45:56;;;;;;;;;;;;;;;17.86;76.20;100799.67;1688892;83;25835;-61
2022/09/30 07:51:11;;;;;;;;;;;;;;;18.13;73.69;100818.70;1678133;84;25760;-60
2022/09/30 07:53:38;;;;;;;;;;;;;;;18.29;73.49;100829.92;1679876;85;25792;-60
2022/09/30 07:56:06;;;;;;;;;;;;;;;18.45;72.29;100826.72;1679745;85;26977;-60
2022/09/30 07:58:33;;;;;;;;;;;;;;;18.60;72.07;100824.00;1680003;84;25850;-61
2022/09/30 08:00:59;;;;;;;;;;;;;;;18.79;72.46;100818.48;1676687;83;27568;-62
2022/09/30 08:03:26;;;;;;;;;;;;;;;19.00;72.21;100825.08;1676112;84;25478;-61
2022/09/30 08:05:52;;;;;;;;;;;;;;;19.19;71.26;100831.27;1675173;85;25786;-60
2022/09/30 08:08:19;;;;;;;;;;;;;;;19.40;71.94;100829.61;1675696;84;26115;-61
2022/09/30 08:10:46;;;;;;;;;;;;;;;19.61;71.18;100831.51;1682182;84;26122;-61
2022/09/30 08:13:12;;;;;;;;;;;;;;;19.80;71.56;100831.39;1691393;83;27451;-60
2022/09/30 08:15:39;;;;;;;;;;;;;;;20.03;70.24;100833.08;1688808;84;25765;-61
2022/09/30 08:18:05;;;;;;;;;;;;;;;20.19;69.75;100833.31;1693140;82;25820;-60
2022/09/30 08:20:32;;;;;;;;;;;;;;;20.32;67.83;100839.40;1676109;84;26110;-61
2022/09/30 08:22:59;;;;;;;;;;;;;;;20.49;67.89;100847.61;1673617;84;25755;-60
2022/09/30 08:25:26;;;;;;;;;;;;;;;20.69;67.86;100846.03;1673423;84;27563;-61
2022/09/30 08:27:53;;;;;;;;;;;;;;;20.89;65.37;100850.26;1673337;84;25821;-61
2022/09/30 08:30:20;;;;;;;;;;;;;;;21.05;66.43;100847.20;1669779;84;25979;-60
2022/09/30 08:32:47;;;;;;;;;;;;;;;21.23;65.42;100849.36;1622054;88;26173;-61
2022/09/30 08:35:13;;;;;;;;;;;;;;;21.46;62.31;100848.19;1649441;85;27333;-61
2022/09/30 08:37:40;;;;;;;;;;;;;;;21.67;58.21;100847.71;1677422;84;27614;-61
2022/09/30 08:40:10;;;;;;;;;;;;;;;21.82;58.17;100838.80;1699300;84;25728;-60
2022/09/30 08:42:49;;;;;;;;;;;;;;;22.07;60.40;100840.05;1686709;84;26094;-61
2022/09/30 08:45:35;;;;;;;;;;;;;;;22.37;60.15;100841.81;1676956;84;26086;-61
2022/09/30 08:48:12;;;;;;;;;;;;;;;22.54;59.24;100849.64;1677834;85;25764;-61
2022/09/30 08:51:02;;;;;;;;;;;;;;;22.67;57.64;100850.97;1675675;84;27451;-61
2022/09/30 08:53:37;;;;;;;;;;;;;;;22.71;55.91;100861.84;1677091;85;27303;-60
2022/09/30 08:56:05;;;;;;;;;;;;;;;22.65;53.82;100854.45;1673878;84;25792;-61
2022/09/30 08:58:37;;;;;;;;;;;;;;;22.74;55.84;100857.81;1683354;84;26853;-61
2022/09/30 09:01:16;;;;;;;;;;;;;;;23.04;55.30;100855.94;1679471;84;25822;-61
2022/09/30 09:03:44;;;;;;;;;;;;;;;23.33;55.87;100855.93;1683832;85;27487;-61
2022/09/30 09:06:19;;;;;;;;;;;;;;;23.71;56.24;100859.17;1680763;84;25811;-62
2022/09/30 09:08:56;;;;;;;;;;;;;;;24.09;53.37;100851.11;1690141;83;25508;-61
2022/09/30 09:11:32;;;;;;;;;;;;;;;24.54;53.87;100850.37;1677746;84;26094;-62
2022/09/30 09:14:05;;;;;;;;;;;;;;;25.30;52.10;100843.77;1687457;85;25708;-61
2022/09/30 09:16:44;;;;;;;;;;;;;;;26.21;51.54;100845.09;1681437;85;28342;-61
2022/09/30 09:19:14;;;;;;;;;;;;;;;27.03;48.74;100844.70;1679661;85;25725;-62
2022/09/30 09:21:59;;;;;;;;;;;;;;;27.44;46.31;100844.70;1680598;83;25741;-60
2022/09/30 09:24:36;;;;;;;;;;;;;;;27.70;46.66;100841.58;1675707;84;27046;-61
2022/09/30 09:27:23;;;;;;;;;;;;;;;27.35;42.99;100844.77;1654614;86;25786;-61
2022/09/30 09:30:11;;;;;;;;;;;;;;;26.95;42.39;100834.58;1674685;84;27409;-61
2022/09/30 09:32:38;;;;;;;;;;;;;;;26.97;45.54;100837.94;1655719;85;26202;-61
2022/09/30 09:35:20;;;;;;;;;;;;;;;28.06;45.19;100834.71;1679071;85;25680;-61
2022/09/30 09:41:01;;;;;;;;;;;;;;;29.70;43.06;100827.97;1664330;85;25717;-60
2022/09/30 09:43:42;;;;;;;;;;;;;;;30.67;41.96;100818.13;1688776;85;27524;-62
2022/09/30 09:46:27;;;;;;;;;;;;;;;31.48;39.57;100819.23;1683650;85;25905;-62
2022/09/30 09:49:22;;;;;;;;;;;;;;;32.39;39.71;100820.92;1675729;85;25744;-60
2022/09/30 09:51:59;;;;;;;;;;;;;;;33.00;36.65;100822.38;1687014;85;26117;-61
2022/09/30 09:54:30;;;;;;;;;;;;;;;33.31;34.21;100819.42;1653221;83;25782;-63
2022/09/30 09:56:57;;;;;;;;;;;;;;;33.53;35.56;100814.27;1686993;84;27601;-62
2022/09/30 09:59:24;;;;;;;;;;;;;;;33.77;35.50;100815.48;1677952;85;25773;-61
2022/09/30 10:01:52;;;;;;;;;;;;;;;34.29;36.00;100819.46;1670823;85;25750;-60
2022/09/30 10:04:23;;;;;;;;;;;;;;;34.95;34.02;100828.24;1665310;85;26099;-61
2022/09/30 10:07:01;;;;;;;;;;;;;;;35.64;34.62;100818.59;1665120;86;25809;-61
2022/09/30 10:09:33;;;;;;;;;;;;;;;36.06;33.01;100810.34;1693844;83;27461;-60
2022/09/30 10:12:10;;;;;;;;;;;;;;;36.33;32.20;100807.31;1677928;85;25727;-62
2022/09/30 10:14:47;;;;;;;;;;;;;;;36.29;30.58;100804.86;1678153;85;26646;-62
2022/09/30 10:17:19;;;;;;;;;;;;;;;35.56;32.05;100797.72;1677024;85;26108;-61
2022/09/30 10:20:01;;;;;;;;;;;;;;;34.57;32.42;100797.40;1676836;85;25817;-61
2022/09/30 10:22:29;;;;;;;;;;;;;;;33.66;33.05;100799.39;1677342;85;27514;-61
2022/09/30 10:25:12;;;;;;;;;;;;;;;32.99;33.05;100799.84;1678606;85;25816;-62
2022/09/30 10:27:51;;;;;;;;;;;;;;;33.10;33.06;100800.03;1676358;85;25495;-61
2022/09/30 10:30:42;;;;;;;;;;;;;;;33.26;32.77;100786.84;1683047;84;26165;-61
2022/09/30 10:33:15;;;;;;;;;;;;;;;33.74;32.67;100791.79;1679543;85;25722;-61
2022/09/30 10:35:58;;;;;;;;;;;;;;;34.61;32.63;100790.10;1675782;85;27514;-61
2022/09/30 10:38:28;;;;;;;;;;;;;;;35.35;31.82;100790.78;1683876;83;25769;-62
2022/09/30 10:40:56;;;;;;;;;;;;;;;36.13;31.10;100784.75;1687048;83;25813;-62
2022/09/30 10:43:31;;;;;;;;;;;;;;;36.77;28.52;100789.06;1678573;85;26107;-61
2022/09/30 10:46:02;;;;;;;;;;;;;;;37.30;29.36;100784.55;1666568;85;25769;-61
2022/09/30 10:48:30;;;;;;;;;;;;;;;37.64;28.02;100793.80;1693241;83;27545;-60
2022/09/30 10:50:57;;;;;;;;;;;;;;;38.08;27.10;100789.04;1675103;85;25779;-61
2022/09/30 10:53:28;;;;;;;;;;;;;;;38.18;26.82;100792.42;1670362;85;25719;-61
2022/09/30 10:55:56;;;;;;;;;;;;;;;38.28;26.58;100780.05;1669260;83;26259;-61
2022/09/30 10:58:47;;;;;;;;;;;;;;;38.77;27.66;100780.64;1670025;85;25860;-61
2022/09/30 11:01:23;;;;;;;;;;;;;;;39.11;26.34;100774.82;1670332;85;27556;-60
2022/09/30 11:04:08;;;;;;;;;;;;;;;39.50;26.09;100770.77;1678609;83;25903;-62
2022/09/30 11:06:38;;;;;;;;;;;;;;;39.60;24.03;100767.01;1668087;85;25848;-62
2022/09/30 11:09:10;;;;;;;;;;;;;;;39.48;24.11;100766.88;1671804;85;26845;-61
2022/09/30 11:11:47;;;;;;;;;;;;;;;39.57;24.53;100770.52;1665972;85;26013;-61
2022/09/30 11:14:36;;;;;;;;;;;;;;;39.44;23.91;100760.25;1670809;85;27434;-61
2022/09/30 11:17:24;;;;;;;;;;;;;;;39.18;24.13;100755.45;1669754;84;25816;-61
2022/09/30 11:19:54;;;;;;;;;;;;;;;38.78;22.93;100753.59;1669700;84;25789;-61
2022/09/30 11:22:44;;;;;;;;;;;;;;;38.42;22.61;100753.86;1675758;85;26187;-61
2022/09/30 11:25:16;;;;;;;;;;;;;;;38.12;23.14;100763.39;1675245;85;25792;-61
2022/09/30 11:27:48;;;;;;;;;;;;;;;37.94;23.03;100768.08;1674822;85;28513;-61
2022/09/30 11:30:21;;;;;;;;;;;;;;;37.84;21.71;100767.77;1678280;84;25708;-60
2022/09/30 11:32:54;;;;;;;;;;;;;;;37.08;22.50;100763.15;1673702;85;25832;-61
2022/09/30 11:35:33;;;;;;;;;;;;;;;36.65;22.19;100763.53;1674868;85;26147;-62
2022/09/30 11:38:09;;;;;;;;;;;;;;;36.43;22.98;100769.34;1684306;83;25748;-61
2022/09/30 11:40:45;;;;;;;;;;;;;;;36.19;22.32;100772.30;1695190;84;27421;-60
2022/09/30 11:43:24;;;;;;;;;;;;;;;35.85;22.37;100769.28;1676522;85;26188;-61
2022/09/30 11:45:54;;;;;;;;;;;;;;;35.61;21.62;100769.41;1679019;85;25774;-62
2022/09/30 11:48:36;;;;;;;;;;;;;;;35.26;22.41;100762.66;1681842;85;26049;-60
2022/09/30 11:51:18;;;;;;;;;;;;;;;35.12;23.40;100764.58;1682303;83;25710;-61
2022/09/30 11:54:20;;;;;;;;;;;;;;;35.10;23.99;100763.46;1701086;83;28373;-61
2022/09/30 11:57:09;;;;;;;;;;;;;;;35.14;23.70;100760.34;1661827;85;25668;-60
2022/09/30 11:59:45;;;;;;;;;;;;;;;35.14;23.96;100756.14;1662263;85;25865;-63
2022/09/30 12:02:25;;;;;;;;;;;;;;;35.09;22.57;100760.43;1671528;85;26103;-62
2022/09/30 12:04:56;;;;;;;;;;;;;;;34.88;23.15;100757.89;1674526;85;25816;-61
2022/09/30 12:07:41;;;;;;;;;;;;;;;34.98;23.91;100758.91;1677015;85;27552;-62
2022/09/30 12:10:26;;;;;;;;;;;;;;;35.17;24.28;100753.30;1672066;85;25834;-61
2022/09/30 12:12:59;;;;;;;;;;;;;;;35.43;24.33;100748.17;1668500;85;25759;-61
2022/09/30 12:15:26;;;;;;;;;;;;;;;35.77;23.32;100744.22;1672209;84;26239;-61
2022/09/30 12:17:57;;;;;;;;;;;;;;;36.04;24.25;100744.03;1670839;85;25955;-60
2022/09/30 12:20:37;;;;;;;;;;;;;;;36.47;23.27;100738.14;1671943;85;28320;-60
2022/09/30 12:23:19;;;;;;;;;;;;;;;36.73;22.97;100734.77;1680287;85;25775;-61
2022/09/30 12:25:50;;;;;;;;;;;;;;;37.21;23.39;100739.59;1669599;85;25694;-60
2022/09/30 12:31:47;;;;;;;;;;;;;;;38.27;20.60;100744.68;1675328;83;25717;-63
2022/09/30 12:34:48;;;;;;;;;;;;;;;38.74;19.51;100744.15;1672208;85;27662;-62
2022/09/30 12:37:28;;;;;;;;;;;;;;;39.16;20.04;100739.48;1673004;85;25753;-60
2022/09/30 12:40:03;;;;;;;;;;;;;;;39.93;20.44;100730.42;1677204;83;25859;-61
2022/09/30 12:42:44;;;;;;;;;;;;;;;40.56;19.66;100736.83;1675558;85;26250;-61
2022/09/30 12:45:37;;;;;;;;;;;;;;;41.10;17.94;100732.48;1669056;85;26274;-60
2022/09/30 12:48:16;;;;;;;;;;;;;;;41.45;17.73;100744.27;1677544;85;27394;-62
2022/09/30 12:50:48;;;;;;;;;;;;;;;41.93;17.22;100726.98;1678889;84;25807;-61
2022/09/30 12:53:30;;;;;;;;;;;;;;;42.39;17.49;100722.67;1670685;85;25888;-61
2022/09/30 12:56:10;;;;;;;;;;;;;;;42.89;17.04;100723.98;1675338;83;26193;-60
2022/09/30 12:58:46;;;;;;;;;;;;;;;43.11;15.65;100722.59;1671088;85;26230;-62
2022/09/30 13:01:19;;;;;;;;;;;;;;;43.41;15.34;100718.00;1674252;85;27547;-60
2022/09/30 13:03:58;;;;;;;;;;;;;;;43.68;16.47;100714.09;1674110;85;25843;-61
2022/09/30 13:06:40;;;;;;;;;;;;;;;43.88;15.26;100718.66;1643183;85;25522;-60
2022/09/30 13:09:21;;;;;;;;;;;;;;;43.98;14.91;100719.30;1654118;85;26319;-61
2022/09/30 13:12:00;;;;;;;;;;;;;;;43.98;15.84;100716.47;1676573;85;25738;-61